sensor_id;sensor_type;location;lat;lon;timestamp;pressure;altitude;pressure_sealevel;temperature;humidity
17260;BME280;8746;49.230;9.220;2024-01-25T00:00:15;101025.03;;;8.69;100.00
17260;BME280;8746;49.230;9.220;2024-01-25T00:02:41;101032.94;;;8.68;100.00
17260;BME280;8746;49.230;9.220;2024-01-25T00:05:06;101028.59;;;8.65;100.00
17260;BME280;8746;49.230;9.220;2024-01-25T00:07:32;101027.69;;;8.68;100.00
17260;BME280;8746;49.230;9.220;2024-01-25T00:09:57;101032.16;;;8.61;100.00
17260;BME280;8746;49.230;9.220;2024-01-25T00:12:23;101037.47;;;8.58;100.00
17260;BME280;8746;49.230;9.220;2024-01-25T00:14:48;101034.75;;;8.62;100.00
17260;BME280;8746;49.230;9.220;2024-01-25T00:17:13;101022.47;;;8.63;100.00
17260;BME280;8746;49.230;9.220;2024-01-25T00:19:39;101025.16;;;8.60;100.00
17260;BME280;8746;49.230;9.220;2024-01-25T00:22:06;101021.69;;;8.56;100.00
17260;BME280;8746;49.230;9.220;2024-01-25T00:24:32;101016.47;;;8.55;100.00
17260;BME280;8746;49.230;9.220;2024-01-25T00:26:57;100998.91;;;8.57;100.00
17260;BME280;8746;49.230;9.220;2024-01-25T00:29:23;101013.81;;;8.55;100.00
17260;BME280;8746;49.230;9.220;2024-01-25T00:31:48;101014.75;;;8.52;100.00
17260;BME280;8746;49.230;9.220;2024-01-25T00:34:14;101001.59;;;8.52;100.00
17260;BME280;8746;49.230;9.220;2024-01-25T00:36:39;100994.56;;;8.53;100.00
17260;BME280;8746;49.230;9.220;2024-01-25T00:39:05;101007.69;;;8.56;100.00
17260;BME280;8746;49.230;9.220;2024-01-25T00:41:32;101005.13;;;8.51;100.00
17260;BME280;8746;49.230;9.220;2024-01-25T00:43:57;101005.09;;;8.53;100.00
17260;BME280;8746;49.230;9.220;2024-01-25T00:46:23;101007.72;;;8.53;100.00
17260;BME280;8746;49.230;9.220;2024-01-25T00:48:49;101001.72;;;8.41;100.00
17260;BME280;8746;49.230;9.220;2024-01-25T00:51:15;100998.13;;;8.48;100.00
17260;BME280;8746;49.230;9.220;2024-01-25T00:53:45;100996.44;;;8.43;100.00
17260;BME280;8746;49.230;9.220;2024-01-25T00:56:11;100997.34;;;8.40;100.00
17260;BME280;8746;49.230;9.220;2024-01-25T00:58:37;101002.50;;;8.49;100.00
17260;BME280;8746;49.230;9.220;2024-01-25T01:01:02;101000.81;;;8.42;100.00
17260;BME280;8746;49.230;9.220;2024-01-25T01:03:28;100998.16;;;8.44;100.00
17260;BME280;8746;49.230;9.220;2024-01-25T01:05:54;100992.94;;;8.42;100.00
17260;BME280;8746;49.230;9.220;2024-01-25T01:08:19;100997.28;;;8.46;100.00
17260;BME280;8746;49.230;9.220;2024-01-25T01:10:45;101007.91;;;8.37;100.00
17260;BME280;8746;49.230;9.220;2024-01-25T01:13:11;101004.44;;;8.35;100.00
17260;BME280;8746;49.230;9.220;2024-01-25T01:15:36;101008.00;;;8.31;100.00
17260;BME280;8746;49.230;9.220;2024-01-25T01:18:01;101008.88;;;8.30;100.00
17260;BME280;8746;49.230;9.220;2024-01-25T01:20:26;101006.28;;;8.27;100.00
17260;BME280;8746;49.230;9.220;2024-01-25T01:22:52;101008.94;;;8.25;100.00
17260;BME280;8746;49.230;9.220;2024-01-25T01:25:17;101004.56;;;8.26;100.00
17260;BME280;8746;49.230;9.220;2024-01-25T01:27:43;101008.06;;;8.26;100.00
17260;BME280;8746;49.230;9.220;2024-01-25T01:30:08;101014.22;;;8.24;100.00
17260;BME280;8746;49.230;9.220;2024-01-25T01:32:34;101017.72;;;8.24;100.00
17260;BME280;8746;49.230;9.220;2024-01-25T01:34:59;101008.16;;;8.20;100.00
17260;BME280;8746;49.230;9.220;2024-01-25T01:37:25;101008.97;;;8.24;100.00
17260;BME280;8746;49.230;9.220;2024-01-25T01:39:50;101005.56;;;8.18;100.00
17260;BME280;8746;49.230;9.220;2024-01-25T01:42:16;101004.59;;;8.23;100.00
17260;BME280;8746;49.230;9.220;2024-01-25T01:44:41;101009.00;;;8.22;100.00
17260;BME280;8746;49.230;9.220;2024-01-25T01:47:07;101009.84;;;8.26;100.00
17260;BME280;8746;49.230;9.220;2024-01-25T01:49:32;101002.00;;;8.21;100.00
17260;BME280;8746;49.230;9.220;2024-01-25T01:51:58;101008.09;;;8.23;100.00
17260;BME280;8746;49.230;9.220;2024-01-25T01:54:24;101004.59;;;8.23;100.00
17260;BME280;8746;49.230;9.220;2024-01-25T01:56:50;101004.59;;;8.23;100.00
17260;BME280;8746;49.230;9.220;2024-01-25T01:59:16;101004.59;;;8.23;100.00
17260;BME280;8746;49.230;9.220;2024-01-25T02:01:42;101008.19;;;8.18;100.00
17260;BME280;8746;49.230;9.220;2024-01-25T02:04:07;101002.91;;;8.18;100.00
17260;BME280;8746;49.230;9.220;2024-01-25T02:06:33;101000.25;;;8.20;100.00
17260;BME280;8746;49.230;9.220;2024-01-25T02:08:58;101005.53;;;8.17;100.00
17260;BME280;8746;49.230;9.220;2024-01-25T02:11:27;101013.47;;;8.15;100.00
17260;BME280;8746;49.230;9.220;2024-01-25T02:13:53;100999.47;;;8.12;100.00
17260;BME280;8746;49.230;9.220;2024-01-25T02:16:18;101011.69;;;8.17;100.00
17260;BME280;8746;49.230;9.220;2024-01-25T02:18:45;101002.03;;;8.18;100.00
17260;BME280;8746;49.230;9.220;2024-01-25T02:21:11;100999.50;;;8.10;100.00
17260;BME280;8746;49.230;9.220;2024-01-25T02:23:37;101002.19;;;8.06;100.00
17260;BME280;8746;49.230;9.220;2024-01-25T02:26:02;101005.66;;;8.09;100.00
17260;BME280;8746;49.230;9.220;2024-01-25T02:28:27;101010.06;;;8.07;100.00
17260;BME280;8746;49.230;9.220;2024-01-25T02:30:53;100992.50;;;8.12;100.00
17260;BME280;8746;49.230;9.220;2024-01-25T02:33:18;100999.53;;;8.07;100.00
17260;BME280;8746;49.230;9.220;2024-01-25T02:35:44;101012.50;;;8.23;100.00
17260;BME280;8746;49.230;9.220;2024-01-25T02:38:09;101015.22;;;8.13;100.00
17260;BME280;8746;49.230;9.220;2024-01-25T02:40:34;101005.63;;;8.11;100.00
17260;BME280;8746;49.230;9.220;2024-01-25T02:43:00;101011.69;;;8.17;100.00
17260;BME280;8746;49.230;9.220;2024-01-25T02:45:25;101012.56;;;8.16;100.00
17260;BME280;8746;49.230;9.220;2024-01-25T02:47:50;100996.94;;;8.06;100.00
17260;BME280;8746;49.230;9.220;2024-01-25T02:50:16;101003.84;;;8.13;100.00
17260;BME280;8746;49.230;9.220;2024-01-25T02:52:41;100993.44;;;8.07;100.00
17260;BME280;8746;49.230;9.220;2024-01-25T02:55:07;100993.28;;;8.17;100.00
17260;BME280;8746;49.230;9.220;2024-01-25T02:57:33;100990.69;;;8.14;100.00
17260;BME280;8746;49.230;9.220;2024-01-25T02:59:58;100997.75;;;8.12;100.00
17260;BME280;8746;49.230;9.220;2024-01-25T03:02:24;101003.09;;;8.03;100.00
17260;BME280;8746;49.230;9.220;2024-01-25T03:04:49;100992.66;;;7.98;100.00
17260;BME280;8746;49.230;9.220;2024-01-25T03:07:14;100994.41;;;7.98;100.00
17260;BME280;8746;49.230;9.220;2024-01-25T03:09:40;100993.56;;;7.96;100.00
17260;BME280;8746;49.230;9.220;2024-01-25T03:12:05;101005.84;;;7.94;100.00
17260;BME280;8746;49.230;9.220;2024-01-25T03:14:31;101011.94;;;7.96;100.00
17260;BME280;8746;49.230;9.220;2024-01-25T03:16:56;101001.44;;;7.96;100.00
17260;BME280;8746;49.230;9.220;2024-01-25T03:19:26;100994.50;;;7.92;100.00
17260;BME280;8746;49.230;9.220;2024-01-25T03:21:52;101004.13;;;7.93;100.00
17260;BME280;8746;49.230;9.220;2024-01-25T03:24:17;101011.09;;;7.94;100.00
17260;BME280;8746;49.230;9.220;2024-01-25T03:26:43;101013.78;;;7.88;100.00
17260;BME280;8746;49.230;9.220;2024-01-25T03:29:08;101010.22;;;7.95;100.00
17260;BME280;8746;49.230;9.220;2024-01-25T03:31:34;101014.72;;;7.83;100.00
17260;BME280;8746;49.230;9.220;2024-01-25T03:34:01;101020.91;;;7.79;100.00
17260;BME280;8746;49.230;9.220;2024-01-25T03:36:26;101027.97;;;7.74;100.00
17260;BME280;8746;49.230;9.220;2024-01-25T03:38:52;101031.50;;;7.72;100.00
17260;BME280;8746;49.230;9.220;2024-01-25T03:41:17;101027.13;;;7.72;100.00
17260;BME280;8746;49.230;9.220;2024-01-25T03:43:42;101037.69;;;7.67;100.00
17260;BME280;8746;49.230;9.220;2024-01-25T03:46:13;101035.94;;;7.63;100.00
17260;BME280;8746;49.230;9.220;2024-01-25T03:48:38;101039.41;;;7.68;100.00
17260;BME280;8746;49.230;9.220;2024-01-25T03:51:03;101041.22;;;7.62;100.00
17260;BME280;8746;49.230;9.220;2024-01-25T03:53:29;101049.16;;;7.59;100.00
17260;BME280;8746;49.230;9.220;2024-01-25T03:55:54;101050.91;;;7.60;100.00
17260;BME280;8746;49.230;9.220;2024-01-25T03:58:20;101046.56;;;7.54;100.00
17260;BME280;8746;49.230;9.220;2024-01-25T04:00:45;101056.25;;;7.47;100.00
17260;BME280;8746;49.230;9.220;2024-01-25T04:03:11;101060.50;;;7.59;100.00
17260;BME280;8746;49.230;9.220;2024-01-25T04:05:36;101061.44;;;7.53;100.00
17260;BME280;8746;49.230;9.220;2024-01-25T04:08:02;101071.97;;;7.50;100.00
17260;BME280;8746;49.230;9.220;2024-01-25T04:10:28;101073.69;;;7.54;100.00
17260;BME280;8746;49.230;9.220;2024-01-25T04:12:53;101080.72;;;7.52;100.00
17260;BME280;8746;49.230;9.220;2024-01-25T04:15:19;101072.00;;;7.47;100.00
17260;BME280;8746;49.230;9.220;2024-01-25T04:17:44;101078.09;;;7.52;100.00
17260;BME280;8746;49.230;9.220;2024-01-25T04:20:10;101082.56;;;7.41;100.00
17260;BME280;8746;49.230;9.220;2024-01-25T04:22:36;101084.34;;;7.36;100.00
17260;BME280;8746;49.230;9.220;2024-01-25T04:25:01;101081.75;;;7.31;100.00
17260;BME280;8746;49.230;9.220;2024-01-25T04:27:27;101087.09;;;7.24;100.00
17260;BME280;8746;49.230;9.220;2024-01-25T04:29:52;101085.38;;;7.18;100.00
17260;BME280;8746;49.230;9.220;2024-01-25T04:32:18;101092.47;;;7.10;100.00
17260;BME280;8746;49.230;9.220;2024-01-25T04:34:43;101079.28;;;7.13;100.00
17260;BME280;8746;49.230;9.220;2024-01-25T04:37:09;101090.72;;;7.04;100.00
17260;BME280;8746;49.230;9.220;2024-01-25T04:39:34;101094.25;;;7.01;100.00
17260;BME280;8746;49.230;9.220;2024-01-25T04:42:01;101095.19;;;6.94;100.00
17260;BME280;8746;49.230;9.220;2024-01-25T04:44:26;101103.97;;;6.85;100.00
17260;BME280;8746;49.230;9.220;2024-01-25T04:46:52;101114.50;;;6.79;100.00
17260;BME280;8746;49.230;9.220;2024-01-25T04:49:18;101119.75;;;6.76;100.00
17260;BME280;8746;49.230;9.220;2024-01-25T04:51:44;101125.03;;;6.73;100.00
17260;BME280;8746;49.230;9.220;2024-01-25T04:54:09;101128.53;;;6.72;100.00
17260;BME280;8746;49.230;9.220;2024-01-25T04:56:38;101131.19;;;6.64;100.00
17260;BME280;8746;49.230;9.220;2024-01-25T04:59:03;101126.81;;;6.65;100.00
17260;BME280;8746;49.230;9.220;2024-01-25T05:01:29;101130.34;;;6.59;100.00
17260;BME280;8746;49.230;9.220;2024-01-25T05:03:54;101128.59;;;6.56;100.00
17260;BME280;8746;49.230;9.220;2024-01-25T05:06:20;101132.09;;;6.55;100.00
17260;BME280;8746;49.230;9.220;2024-01-25T05:08:45;101134.72;;;6.55;100.00
17260;BME280;8746;49.230;9.220;2024-01-25T05:11:11;101129.47;;;6.63;100.00
17260;BME280;8746;49.230;9.220;2024-01-25T05:13:36;101124.13;;;6.74;100.00
17260;BME280;8746;49.230;9.220;2024-01-25T05:16:01;101125.88;;;6.78;100.00
17260;BME280;8746;49.230;9.220;2024-01-25T05:18:27;101119.75;;;6.79;100.00
17260;BME280;8746;49.230;9.220;2024-01-25T05:20:52;101120.66;;;6.73;100.00
17260;BME280;8746;49.230;9.220;2024-01-25T05:23:18;101118.97;;;6.62;100.00
17260;BME280;8746;49.230;9.220;2024-01-25T05:25:43;101132.09;;;6.58;100.00
17260;BME280;8746;49.230;9.220;2024-01-25T05:28:08;101131.25;;;6.55;100.00
17260;BME280;8746;49.230;9.220;2024-01-25T05:30:34;101130.38;;;6.53;100.00
17260;BME280;8746;49.230;9.220;2024-01-25T05:32:59;101126.88;;;6.54;100.00
17260;BME280;8746;49.230;9.220;2024-01-25T05:35:26;101128.59;;;6.58;100.00
17260;BME280;8746;49.230;9.220;2024-01-25T05:37:51;101123.31;;;6.63;100.00
17260;BME280;8746;49.230;9.220;2024-01-25T05:40:16;101127.72;;;6.62;100.00
17260;BME280;8746;49.230;9.220;2024-01-25T05:42:42;101123.31;;;6.63;100.00
17260;BME280;8746;49.230;9.220;2024-01-25T05:45:08;101125.09;;;6.61;100.00
17260;BME280;8746;49.230;9.220;2024-01-25T05:47:34;101124.25;;;6.57;100.00
17260;BME280;8746;49.230;9.220;2024-01-25T05:49:59;101130.38;;;6.53;100.00
17260;BME280;8746;49.230;9.220;2024-01-25T05:52:25;101130.41;;;6.47;100.00
17260;BME280;8746;49.230;9.220;2024-01-25T05:54:51;101137.41;;;6.43;100.00
17260;BME280;8746;49.230;9.220;2024-01-25T05:57:16;101133.91;;;6.44;100.00
17260;BME280;8746;49.230;9.220;2024-01-25T05:59:45;101143.53;;;6.40;100.00
17260;BME280;8746;49.230;9.220;2024-01-25T06:02:11;101148.78;;;6.39;100.00
17260;BME280;8746;49.230;9.220;2024-01-25T06:04:36;101143.53;;;6.40;100.00
17260;BME280;8746;49.230;9.220;2024-01-25T06:07:02;101150.53;;;6.37;100.00
17260;BME280;8746;49.230;9.220;2024-01-25T06:09:28;101151.38;;;6.42;100.00
17260;BME280;8746;49.230;9.220;2024-01-25T06:11:53;101152.25;;;6.43;100.00
17260;BME280;8746;49.230;9.220;2024-01-25T06:14:19;101154.00;;;6.42;100.00
17260;BME280;8746;49.230;9.220;2024-01-25T06:16:45;101150.50;;;6.43;100.00
17260;BME280;8746;49.230;9.220;2024-01-25T06:19:10;101150.50;;;6.43;100.00
17260;BME280;8746;49.230;9.220;2024-01-25T06:21:36;101151.41;;;6.39;100.00
17260;BME280;8746;49.230;9.220;2024-01-25T06:24:03;101144.44;;;6.36;100.00
17260;BME280;8746;49.230;9.220;2024-01-25T06:26:29;101149.69;;;6.32;100.00
17260;BME280;8746;49.230;9.220;2024-01-25T06:28:54;101145.34;;;6.24;100.00
17260;BME280;8746;49.230;9.220;2024-01-25T06:31:19;101141.84;;;6.18;100.00
17260;BME280;8746;49.230;9.220;2024-01-25T06:33:45;101156.72;;;6.11;100.00
17260;BME280;8746;49.230;9.220;2024-01-25T06:36:12;101169.81;;;6.11;100.00
17260;BME280;8746;49.230;9.220;2024-01-25T06:38:40;101168.06;;;6.05;100.00
17260;BME280;8746;49.230;9.220;2024-01-25T06:41:05;101180.31;;;6.02;100.00
17260;BME280;8746;49.230;9.220;2024-01-25T06:43:31;101183.81;;;5.94;100.00
17260;BME280;8746;49.230;9.220;2024-01-25T06:45:56;101184.66;;;5.97;100.00
17260;BME280;8746;49.230;9.220;2024-01-25T06:48:21;101193.41;;;6.02;100.00
17260;BME280;8746;49.230;9.220;2024-01-25T06:50:47;101184.69;;;6.00;100.00
17260;BME280;8746;49.230;9.220;2024-01-25T06:53:14;101179.44;;;6.01;100.00
17260;BME280;8746;49.230;9.220;2024-01-25T06:55:39;101183.78;;;5.96;100.00
17260;BME280;8746;49.230;9.220;2024-01-25T06:58:04;101186.41;;;5.96;100.00
17260;BME280;8746;49.230;9.220;2024-01-25T07:00:30;101183.81;;;5.90;100.00
17260;BME280;8746;49.230;9.220;2024-01-25T07:02:55;101203.00;;;5.89;100.00
17260;BME280;8746;49.230;9.220;2024-01-25T07:05:20;101209.13;;;5.86;100.00
17260;BME280;8746;49.230;9.220;2024-01-25T07:07:46;101203.00;;;5.89;100.00
17260;BME280;8746;49.230;9.220;2024-01-25T07:10:11;101205.59;;;5.90;100.00
17260;BME280;8746;49.230;9.220;2024-01-25T07:12:36;101210.84;;;5.92;100.00
17260;BME280;8746;49.230;9.220;2024-01-25T07:15:02;101201.25;;;5.94;100.00
17260;BME280;8746;49.230;9.220;2024-01-25T07:17:27;101201.28;;;5.99;100.00
17260;BME280;8746;49.230;9.220;2024-01-25T07:19:53;101204.72;;;5.98;100.00
17260;BME280;8746;49.230;9.220;2024-01-25T07:22:18;101196.03;;;6.05;100.00
17260;BME280;8746;49.230;9.220;2024-01-25T07:24:44;101197.78;;;6.07;100.00
17260;BME280;8746;49.230;9.220;2024-01-25T07:27:10;101200.38;;;6.07;100.00
17260;BME280;8746;49.230;9.220;2024-01-25T07:29:36;101204.75;;;6.13;100.00
17260;BME280;8746;49.230;9.220;2024-01-25T07:32:02;101216.94;;;6.23;100.00
17260;BME280;8746;49.230;9.220;2024-01-25T07:34:27;101212.56;;;6.36;100.00
17260;BME280;8746;49.230;9.220;2024-01-25T07:36:53;101209.97;;;6.25;100.00
17260;BME280;8746;49.230;9.220;2024-01-25T07:39:18;101214.34;;;6.23;100.00
17260;BME280;8746;49.230;9.220;2024-01-25T07:41:43;101216.94;;;6.25;100.00
17260;BME280;8746;49.230;9.220;2024-01-25T07:44:09;101215.19;;;6.22;100.00
17260;BME280;8746;49.230;9.220;2024-01-25T07:46:34;101220.44;;;6.27;100.00
17260;BME280;8746;49.230;9.220;2024-01-25T07:49:00;101223.97;;;6.23;100.00
17260;BME280;8746;49.230;9.220;2024-01-25T07:51:25;101219.59;;;6.20;100.00
17260;BME280;8746;49.230;9.220;2024-01-25T07:53:53;101219.59;;;6.17;100.00
17260;BME280;8746;49.230;9.220;2024-01-25T07:56:19;101209.97;;;6.22;100.00
17260;BME280;8746;49.230;9.220;2024-01-25T07:58:44;101207.34;;;6.22;100.00
17260;BME280;8746;49.230;9.220;2024-01-25T08:01:10;101202.97;;;6.20;100.00
17260;BME280;8746;49.230;9.220;2024-01-25T08:03:35;101203.88;;;6.22;100.00
17260;BME280;8746;49.230;9.220;2024-01-25T08:06:02;101203.84;;;6.23;100.00
17260;BME280;8746;49.230;9.220;2024-01-25T08:08:28;101208.22;;;6.26;100.00
17260;BME280;8746;49.230;9.220;2024-01-25T08:10:53;101208.19;;;6.32;100.00
17260;BME280;8746;49.230;9.220;2024-01-25T08:13:18;101219.53;;;6.36;100.00
17260;BME280;8746;49.230;9.220;2024-01-25T08:15:44;101212.53;;;6.41;100.00
17260;BME280;8746;49.230;9.220;2024-01-25T08:18:10;101215.16;;;6.49;100.00
17260;BME280;8746;49.230;9.220;2024-01-25T08:20:37;101216.03;;;6.52;100.00
17260;BME280;8746;49.230;9.220;2024-01-25T08:23:02;101216.88;;;6.56;100.00
17260;BME280;8746;49.230;9.220;2024-01-25T08:25:28;101223.00;;;6.56;100.00
17260;BME280;8746;49.230;9.220;2024-01-25T08:27:53;101213.38;;;6.60;100.00
17260;BME280;8746;49.230;9.220;2024-01-25T08:30:18;101220.34;;;6.67;100.00
17260;BME280;8746;49.230;9.220;2024-01-25T08:32:45;101218.56;;;6.71;100.00
17260;BME280;8746;49.230;9.220;2024-01-25T08:35:10;101214.22;;;6.73;100.00
17260;BME280;8746;49.230;9.220;2024-01-25T08:37:35;101213.31;;;6.77;100.00
17260;BME280;8746;49.230;9.220;2024-01-25T08:40:03;101217.66;;;6.81;100.00
17260;BME280;8746;49.230;9.220;2024-01-25T08:42:31;101220.28;;;6.84;100.00
17260;BME280;8746;49.230;9.220;2024-01-25T08:44:56;101228.13;;;6.94;100.00
17260;BME280;8746;49.230;9.220;2024-01-25T08:47:21;101229.81;;;6.99;100.00
17260;BME280;8746;49.230;9.220;2024-01-25T08:49:47;101239.44;;;7.05;100.00
17260;BME280;8746;49.230;9.220;2024-01-25T08:52:12;101242.91;;;7.10;100.00
17260;BME280;8746;49.230;9.220;2024-01-25T08:54:37;101241.97;;;7.17;100.00
17260;BME280;8746;49.230;9.220;2024-01-25T08:57:04;101234.94;;;7.27;100.00
17260;BME280;8746;49.230;9.220;2024-01-25T08:59:30;101245.41;;;7.29;100.00
17260;BME280;8746;49.230;9.220;2024-01-25T09:01:58;101244.56;;;7.28;100.00
17260;BME280;8746;49.230;9.220;2024-01-25T09:04:23;101259.38;;;7.34;100.00
17260;BME280;8746;49.230;9.220;2024-01-25T09:06:48;101259.34;;;7.40;100.00
17260;BME280;8746;49.230;9.220;2024-01-25T09:09:14;101248.88;;;7.37;100.00
17260;BME280;8746;49.230;9.220;2024-01-25T09:11:39;101254.94;;;7.44;100.00
17260;BME280;8746;49.230;9.220;2024-01-25T09:14:04;101247.88;;;7.53;100.00
17260;BME280;8746;49.230;9.220;2024-01-25T09:16:30;101252.25;;;7.54;100.00
17260;BME280;8746;49.230;9.220;2024-01-25T09:18:55;101258.34;;;7.63;100.00
17260;BME280;8746;49.230;9.220;2024-01-25T09:21:21;101257.38;;;7.73;100.00
17260;BME280;8746;49.230;9.220;2024-01-25T09:23:46;101262.59;;;7.81;100.00
17260;BME280;8746;49.230;9.220;2024-01-25T09:26:15;101266.94;;;7.85;100.00
17260;BME280;8746;49.230;9.220;2024-01-25T09:28:40;101270.38;;;7.93;100.00
17260;BME280;8746;49.230;9.220;2024-01-25T09:31:05;101272.94;;;7.99;100.00
17260;BME280;8746;49.230;9.220;2024-01-25T09:33:31;101275.53;;;8.06;100.00
17260;BME280;8746;49.230;9.220;2024-01-25T09:35:56;101289.50;;;8.11;100.00
17260;BME280;8746;49.230;9.220;2024-01-25T09:38:21;101293.00;;;8.11;100.00
17260;BME280;8746;49.230;9.220;2024-01-25T09:40:47;101300.69;;;8.33;100.00
17260;BME280;8746;49.230;9.220;2024-01-25T09:43:14;101283.06;;;8.44;99.83
17260;BME280;8746;49.230;9.220;2024-01-25T09:45:39;101279.47;;;8.58;99.11
17260;BME280;8746;49.230;9.220;2024-01-25T09:48:06;101283.78;;;8.63;98.31
17260;BME280;8746;49.230;9.220;2024-01-25T09:50:32;101286.34;;;8.71;96.50
17260;BME280;8746;49.230;9.220;2024-01-25T09:52:59;101285.34;;;8.81;96.37
17260;BME280;8746;49.230;9.220;2024-01-25T09:55:26;101284.16;;;9.07;95.60
17260;BME280;8746;49.230;9.220;2024-01-25T09:57:54;101289.00;;;9.38;92.79
17260;BME280;8746;49.230;9.220;2024-01-25T10:00:21;101283.50;;;9.57;89.06
17260;BME280;8746;49.230;9.220;2024-01-25T10:02:50;101291.78;;;9.90;88.00
17260;BME280;8746;49.230;9.220;2024-01-25T10:05:18;101289.88;;;9.98;86.24
17260;BME280;8746;49.230;9.220;2024-01-25T10:07:45;101282.22;;;10.37;83.41
17260;BME280;8746;49.230;9.220;2024-01-25T10:10:12;101283.03;;;10.41;84.79
17260;BME280;8746;49.230;9.220;2024-01-25T10:12:39;101283.94;;;10.87;79.93
17260;BME280;8746;49.230;9.220;2024-01-25T10:15:05;101288.56;;;11.19;78.01
17260;BME280;8746;49.230;9.220;2024-01-25T10:17:31;101278.81;;;11.62;76.94
17260;BME280;8746;49.230;9.220;2024-01-25T10:19:57;101271.19;;;11.86;76.67
17260;BME280;8746;49.230;9.220;2024-01-25T10:22:22;101271.13;;;11.89;73.72
17260;BME280;8746;49.230;9.220;2024-01-25T10:24:48;101279.16;;;11.47;74.01
17260;BME280;8746;49.230;9.220;2024-01-25T10:27:16;101278.72;;;11.26;75.04
17260;BME280;8746;49.230;9.220;2024-01-25T10:29:42;101284.00;;;11.26;76.26
17260;BME280;8746;49.230;9.220;2024-01-25T10:32:08;101287.22;;;11.41;76.90
17260;BME280;8746;49.230;9.220;2024-01-25T10:34:36;101283.06;;;11.29;74.80
17260;BME280;8746;49.230;9.220;2024-01-25T10:37:06;101286.69;;;10.81;77.37
17260;BME280;8746;49.230;9.220;2024-01-25T10:39:32;101277.91;;;10.32;79.33
17260;BME280;8746;49.230;9.220;2024-01-25T10:41:59;101267.31;;;10.82;76.55
17260;BME280;8746;49.230;9.220;2024-01-25T10:44:25;101268.91;;;10.45;78.01
17260;BME280;8746;49.230;9.220;2024-01-25T10:46:51;101262.16;;;10.27;79.29
17260;BME280;8746;49.230;9.220;2024-01-25T10:49:17;101262.47;;;10.60;78.23
17260;BME280;8746;49.230;9.220;2024-01-25T10:51:44;101252.59;;;10.20;78.83
17260;BME280;8746;49.230;9.220;2024-01-25T10:54:11;101253.78;;;10.02;80.44
17260;BME280;8746;49.230;9.220;2024-01-25T10:56:38;101244.47;;;9.81;79.43
17260;BME280;8746;49.230;9.220;2024-01-25T10:59:06;101253.78;;;9.45;81.47
17260;BME280;8746;49.230;9.220;2024-01-25T11:01:33;101254.63;;;9.51;80.80
17260;BME280;8746;49.230;9.220;2024-01-25T11:03:59;101252.31;;;9.27;81.33
17260;BME280;8746;49.230;9.220;2024-01-25T11:06:27;101244.44;;;9.24;82.58
17260;BME280;8746;49.230;9.220;2024-01-25T11:08:52;101237.53;;;9.76;79.52
17260;BME280;8746;49.230;9.220;2024-01-25T11:11:30;101235.22;;;10.09;77.89
17260;BME280;8746;49.230;9.220;2024-01-25T11:13:56;101234.69;;;9.89;77.88
17260;BME280;8746;49.230;9.220;2024-01-25T11:16:29;101231.44;;;9.73;78.46
17260;BME280;8746;49.230;9.220;2024-01-25T11:18:58;101222.53;;;9.80;79.84
17260;BME280;8746;49.230;9.220;2024-01-25T11:21:43;101227.22;;;9.61;79.53
17260;BME280;8746;49.230;9.220;2024-01-25T11:24:36;101236.72;;;9.71;79.44
17260;BME280;8746;49.230;9.220;2024-01-25T11:27:02;101228.47;;;9.93;78.83
17260;BME280;8746;49.230;9.220;2024-01-25T11:29:29;101230.75;;;10.13;77.22
17260;BME280;8746;49.230;9.220;2024-01-25T11:31:55;101224.22;;;10.34;77.36
17260;BME280;8746;49.230;9.220;2024-01-25T11:34:22;101224.13;;;10.40;76.44
17260;BME280;8746;49.230;9.220;2024-01-25T11:36:48;101207.25;;;10.49;75.51
17260;BME280;8746;49.230;9.220;2024-01-25T11:39:15;101207.38;;;10.43;73.38
17260;BME280;8746;49.230;9.220;2024-01-25T11:41:42;101201.84;;;10.57;73.94
17260;BME280;8746;49.230;9.220;2024-01-25T11:44:09;101201.16;;;10.46;75.42
17260;BME280;8746;49.230;9.220;2024-01-25T11:46:35;101190.44;;;10.55;74.83
17260;BME280;8746;49.230;9.220;2024-01-25T11:49:00;101192.44;;;10.44;73.99
17260;BME280;8746;49.230;9.220;2024-01-25T11:51:26;101191.88;;;10.24;74.42
17260;BME280;8746;49.230;9.220;2024-01-25T11:53:51;101190.25;;;10.17;75.03
17260;BME280;8746;49.230;9.220;2024-01-25T11:56:20;101201.72;;;10.15;74.99
17260;BME280;8746;49.230;9.220;2024-01-25T11:58:46;101191.09;;;10.18;75.36
17260;BME280;8746;49.230;9.220;2024-01-25T12:01:13;101195.78;;;10.03;75.67
17260;BME280;8746;49.230;9.220;2024-01-25T12:03:39;101199.97;;;10.14;75.72
17260;BME280;8746;49.230;9.220;2024-01-25T12:06:05;101206.75;;;10.27;74.63
17260;BME280;8746;49.230;9.220;2024-01-25T12:08:32;101185.53;;;10.36;74.25
17260;BME280;8746;49.230;9.220;2024-01-25T12:11:08;101200.88;;;10.61;75.56
17260;BME280;8746;49.230;9.220;2024-01-25T12:13:43;101187.63;;;10.63;74.55
17260;BME280;8746;49.230;9.220;2024-01-25T12:16:09;101173.91;;;10.89;74.16
17260;BME280;8746;49.230;9.220;2024-01-25T12:18:36;101189.28;;;10.68;74.57
17260;BME280;8746;49.230;9.220;2024-01-25T12:21:03;101187.88;;;10.50;75.97
17260;BME280;8746;49.230;9.220;2024-01-25T12:23:39;101175.78;;;10.40;74.84
17260;BME280;8746;49.230;9.220;2024-01-25T12:26:09;101165.81;;;10.07;74.20
17260;BME280;8746;49.230;9.220;2024-01-25T12:28:35;101165.91;;;10.03;73.43
17260;BME280;8746;49.230;9.220;2024-01-25T12:31:04;101160.81;;;9.93;74.28
17260;BME280;8746;49.230;9.220;2024-01-25T12:33:31;101145.63;;;10.06;74.96
17260;BME280;8746;49.230;9.220;2024-01-25T12:35:57;101159.75;;;10.02;75.62
17260;BME280;8746;49.230;9.220;2024-01-25T12:38:23;101163.28;;;10.01;75.40
17260;BME280;8746;49.230;9.220;2024-01-25T12:40:49;101158.06;;;10.00;76.40
17260;BME280;8746;49.230;9.220;2024-01-25T12:43:15;101153.63;;;10.00;75.05
17260;BME280;8746;49.230;9.220;2024-01-25T12:45:41;101165.06;;;9.99;75.04
17260;BME280;8746;49.230;9.220;2024-01-25T12:48:07;101155.53;;;9.93;75.83
17260;BME280;8746;49.230;9.220;2024-01-25T12:50:34;101146.44;;;10.10;75.69
17260;BME280;8746;49.230;9.220;2024-01-25T12:53:00;101138.47;;;10.11;74.72